YAMB

RAAF Base Amberley Airport

Australia
TAF YAMB 232332Z 2400/2418 VRB05KT 9999 FEW035 FM240300 08009KT 9999 FEW045 FM241000 11007KT 9999 SCT025 BKN035 PROB30 TEMPO 2405/2410 VRB20G35KT 5000 TSRA SCT050CB
Issued Valid From Valid To
Oct-23 @ 23:32 UTC
(6 hours ago)
Oct-24 @ 00:00 UTC
(5 hours ago)
Oct-24 @ 18:00 UTC
(in 13 hours)
Expired Click to View Oct-24 @ 00:00 to Oct-24 @ 03:00
TAF YAMB 232332Z 2400/2418 VRB05KT 9999 FEW035
Wind Visibility Clouds
Variable at 5 knots 10,000+ meters
  • Few at 3,500' AGL
From Oct-24 @ 03:00 to Oct-24 @ 10:00
FM240300 08009KT 9999 FEW045
Wind Visibility Clouds
80° at 9 knots 10,000+ meters
  • Few at 4,500' AGL
Temporary  (Probability 30%) Oct-24 @ 05:00 to Oct-24 @ 10:00
PROB30 TEMPO 2405/2410 VRB20G35KT 5000 TSRA SCT050CB
Wind Visibility Clouds Conditions
Variable at 20 knots
 Gusting to 35 knots
5,005 meters
  • Scattered at 5,000' AGL
  • Thunderstorm
  • Rain
From Oct-24 @ 10:00 to Oct-24 @ 18:00
FM241000 11007KT 9999 SCT025 BKN035
Wind Visibility Clouds
110° at 7 knots 10,000+ meters
  • Scattered at 2,500' AGL
  • Broken at 3,500' AGL
TAF YAMB 232332Z 2400/2418 VRB05KT 9999 FEW035 FM240300 08009KT 9999 FEW045 FM241000 11007KT 9999 SCT025 BKN035 PROB30 TEMPO 2405/2410 VRB20G35KT 5000 TSRA SCT050CB
Issued Oct-23 @ 23:32 UTC
(6 hours ago)
Valid From Oct-24 @ 00:00 UTC
(5 hours ago)
Valid To Oct-24 @ 18:00 UTC
(in 13 hours)
Oct-24 @ 00:00 - Oct-24 @ 03:00
Wind Visibility
Variable at 5 knots 10,000+ meters
Clouds
  • Few at 3,500' AGL
From Oct-24 @ 03:00 - Oct-24 @ 10:00
Wind Visibility
80° at 9 knots 10,000+ meters
Clouds
  • Few at 4,500' AGL
Probability 30% Temporary Oct-24 @ 05:00 - Oct-24 @ 10:00
Wind Visibility
Variable at 20 knots
 Gusting to 35 knots
5,005 meters
Clouds
  • Scattered at 5,000' AGL
Conditions
  • Thunderstorm
  • Rain
From Oct-24 @ 10:00 - Oct-24 @ 18:00
Wind Visibility
110° at 7 knots 10,000+ meters
Clouds
  • Scattered at 2,500' AGL
  • Broken at 3,500' AGL